Time;durP1;ratioP1;P1;durP2;ratioP2;P2;SDS_P1;SDS_P2;PMS_P1;PMS_P2;Temp;Humidity;BMP_temperature;BMP_pressure;BME280_temperature;BME280_humidity;BME280_pressure;Samples;Min_cycle;Max_cycle;Signal;HPM_P1;HPM_P2
2023/07/19 00:01:37;;;;;;;;;;;;;;;33.10;42.01;98628.75;5092278;28;19998;-47
2023/07/19 00:04:03;;;;;;;;;;;;;;;32.74;42.80;98636.78;5092399;28;19936;-46
2023/07/19 00:06:28;;;;;;;;;;;;;;;32.40;43.33;98638.97;5092249;28;20401;-46
2023/07/19 00:08:54;;;;;;;;;;;;;;;32.08;43.42;98640.81;5090938;28;19951;-46
2023/07/19 00:11:19;;;;;;;;;;;;;;;31.81;44.23;98639.59;5092268;28;19912;-46
2023/07/19 00:13:45;;;;;;;;;;;;;;;31.59;44.52;98640.88;5092167;28;20449;-46
2023/07/19 00:16:10;;;;;;;;;;;;;;;31.39;45.79;98639.84;5092413;28;20420;-46
2023/07/19 00:18:36;;;;;;;;;;;;;;;31.55;46.13;98648.13;5092487;28;19943;-47
2023/07/19 00:21:01;;;;;;;;;;;;;;;31.82;45.36;98652.03;5092168;28;20385;-47
2023/07/19 00:23:26;;;;;;;;;;;;;;;31.89;45.00;98654.94;5092148;28;19912;-46
2023/07/19 00:25:52;;;;;;;;;;;;;;;32.04;44.52;98665.13;5090798;28;20344;-46
2023/07/19 00:28:17;;;;;;;;;;;;;;;32.14;44.62;98668.50;5092128;28;20347;-47
2023/07/19 00:30:43;;;;;;;;;;;;;;;32.17;44.67;98667.81;5092110;28;19912;-46
2023/07/19 00:33:08;;;;;;;;;;;;;;;32.20;44.60;98672.56;5092039;28;19912;-46
2023/07/19 00:35:34;;;;;;;;;;;;;;;32.19;44.35;98666.31;5092303;28;19916;-46
2023/07/19 00:37:59;;;;;;;;;;;;;;;31.96;44.51;98666.03;5091763;28;20297;-46
2023/07/19 00:40:24;;;;;;;;;;;;;;;31.98;44.82;98666.47;5090790;28;20049;-47
2023/07/19 00:42:57;;;;;;;;;;;;;;;31.84;44.53;98666.84;5090696;28;19912;-46
2023/07/19 00:45:23;;;;;;;;;;;;;;;31.85;44.86;98664.91;5090600;28;20290;-46
2023/07/19 00:47:49;;;;;;;;;;;;;;;31.95;44.74;98674.50;5090725;28;19963;-46
2023/07/19 00:50:14;;;;;;;;;;;;;;;32.06;44.80;98688.44;5090603;28;19912;-47
2023/07/19 00:52:40;;;;;;;;;;;;;;;31.97;44.45;98689.31;5091937;28;19915;-46
2023/07/19 00:55:06;;;;;;;;;;;;;;;31.99;44.88;98689.75;5091861;28;19916;-46
2023/07/19 00:57:32;;;;;;;;;;;;;;;32.18;44.96;98696.56;5091862;28;19918;-46
2023/07/19 00:59:57;;;;;;;;;;;;;;;32.29;44.39;98688.69;5091937;28;20359;-46
2023/07/19 01:02:23;;;;;;;;;;;;;;;32.41;44.85;98684.00;5090554;28;19912;-46
2023/07/19 01:04:49;;;;;;;;;;;;;;;32.40;44.48;98689.81;5094248;28;19912;-47
2023/07/19 01:07:14;;;;;;;;;;;;;;;32.23;44.72;98694.38;5095531;28;19916;-46
2023/07/19 01:09:40;;;;;;;;;;;;;;;32.20;45.12;98697.00;5095467;28;20385;-46
2023/07/19 01:12:06;;;;;;;;;;;;;;;32.15;44.89;98700.72;5095483;28;19912;-46
2023/07/19 01:14:33;;;;;;;;;;;;;;;31.61;44.99;98701.00;5095365;28;19955;-47
2023/07/19 01:16:58;;;;;;;;;;;;;;;30.96;46.11;98709.72;5095267;28;19951;-46
2023/07/19 01:19:23;;;;;;;;;;;;;;;30.43;46.88;98720.25;5095270;28;19984;-46
2023/07/19 01:21:50;;;;;;;;;;;;;;;30.19;47.31;98720.09;5095266;28;19912;-46
2023/07/19 01:24:15;;;;;;;;;;;;;;;30.10;47.47;98717.44;5093956;28;19934;-46
2023/07/19 01:26:40;;;;;;;;;;;;;;;30.06;47.38;98722.75;5095111;28;19916;-46
2023/07/19 01:29:06;;;;;;;;;;;;;;;30.02;47.87;98726.41;5093818;28;20020;-46
2023/07/19 01:31:31;;;;;;;;;;;;;;;30.02;48.23;98731.81;5095046;28;19977;-47
2023/07/19 01:33:57;;;;;;;;;;;;;;;30.01;47.91;98731.03;5093686;28;19935;-47
2023/07/19 01:36:23;;;;;;;;;;;;;;;29.95;48.20;98726.16;5094991;28;19965;-46
2023/07/19 01:38:48;;;;;;;;;;;;;;;29.83;48.30;98722.22;5094803;28;19916;-46
2023/07/19 01:41:13;;;;;;;;;;;;;;;29.70;48.33;98725.13;5094865;28;19958;-46
2023/07/19 01:43:39;;;;;;;;;;;;;;;29.64;48.56;98733.44;5094864;28;19919;-46
2023/07/19 01:46:05;;;;;;;;;;;;;;;29.61;48.68;98730.59;5094765;28;19977;-46
2023/07/19 01:48:30;;;;;;;;;;;;;;;29.58;48.56;98726.63;5094750;28;20352;-46
2023/07/19 01:50:55;;;;;;;;;;;;;;;29.52;48.54;98737.94;5093390;28;19934;-46
2023/07/19 01:53:21;;;;;;;;;;;;;;;29.34;48.53;98737.22;5094555;28;20320;-46
2023/07/19 01:55:46;;;;;;;;;;;;;;;29.21;48.51;98739.81;5094611;28;20370;-46
2023/07/19 01:58:12;;;;;;;;;;;;;;;29.09;48.93;98740.44;5094807;28;19923;-46
2023/07/19 02:00:37;;;;;;;;;;;;;;;28.97;48.90;98737.59;5093210;28;19912;-46
2023/07/19 02:03:03;;;;;;;;;;;;;;;28.83;49.26;98737.00;5094435;28;19912;-46
2023/07/19 02:05:28;;;;;;;;;;;;;;;28.71;49.46;98721.44;5094366;28;20410;-46
2023/07/19 02:07:54;;;;;;;;;;;;;;;28.63;49.53;98724.94;5093123;28;19927;-46
2023/07/19 02:10:19;;;;;;;;;;;;;;;28.60;49.49;98725.59;5094296;28;19970;-46
2023/07/19 02:12:45;;;;;;;;;;;;;;;28.54;49.88;98724.16;5094353;28;19958;-46
2023/07/19 02:15:10;;;;;;;;;;;;;;;28.44;49.42;98725.25;5093263;28;20013;-46
2023/07/19 02:17:36;;;;;;;;;;;;;;;28.33;49.60;98724.75;5092799;28;19924;-46
2023/07/19 02:20:01;;;;;;;;;;;;;;;28.23;49.79;98725.06;5092869;28;20010;-46
2023/07/19 02:22:27;;;;;;;;;;;;;;;28.23;49.46;98738.56;5094113;28;19912;-46
2023/07/19 02:24:52;;;;;;;;;;;;;;;28.20;49.58;98742.69;5092797;28;19912;-46
2023/07/19 02:27:18;;;;;;;;;;;;;;;28.17;49.28;98754.13;5094025;28;19915;-46
2023/07/19 02:29:43;;;;;;;;;;;;;;;28.18;49.60;98757.63;5094250;28;19912;-46
2023/07/19 02:32:09;;;;;;;;;;;;;;;28.18;49.52;98763.78;5092584;28;19963;-46
2023/07/19 02:34:34;;;;;;;;;;;;;;;28.18;49.48;98771.09;5093792;28;19916;-46
2023/07/19 02:37:00;;;;;;;;;;;;;;;28.22;48.91;98769.38;5092256;28;19916;-46
2023/07/19 02:39:27;;;;;;;;;;;;;;;28.28;49.19;98778.91;5093737;28;19916;-46
2023/07/19 02:41:53;;;;;;;;;;;;;;;28.37;49.17;98792.41;5093664;28;20373;-46
2023/07/19 02:44:18;;;;;;;;;;;;;;;28.42;48.71;98793.06;5092328;28;19916;-46
2023/07/19 02:46:44;;;;;;;;;;;;;;;28.45;49.01;98797.84;5093670;28;19916;-46
2023/07/19 02:49:09;;;;;;;;;;;;;;;28.51;48.58;98800.41;5093614;28;19919;-46
2023/07/19 02:51:35;;;;;;;;;;;;;;;28.48;48.20;98807.97;5093516;28;19939;-46
2023/07/19 02:54:00;;;;;;;;;;;;;;;28.47;48.21;98811.00;5092158;28;20008;-46
2023/07/19 02:56:26;;;;;;;;;;;;;;;28.52;48.07;98816.28;5093411;28;19919;-46
2023/07/19 02:58:52;;;;;;;;;;;;;;;28.66;48.58;98818.84;5093392;28;19912;-46
2023/07/19 03:01:17;;;;;;;;;;;;;;;28.93;47.69;98812.31;5093313;28;19919;-46
2023/07/19 03:03:42;;;;;;;;;;;;;;;28.93;47.48;98800.72;5093505;28;20373;-46
2023/07/19 03:06:09;;;;;;;;;;;;;;;28.91;47.53;98789.44;5093530;28;19939;-46
2023/07/19 03:08:36;;;;;;;;;;;;;;;28.72;47.30;98785.16;5093191;28;20274;-46
2023/07/19 03:11:01;;;;;;;;;;;;;;;28.52;47.84;98783.88;5093167;28;20317;-46
2023/07/19 03:13:27;;;;;;;;;;;;;;;28.57;47.97;98743.19;5093056;28;19912;-46
2023/07/19 03:15:52;;;;;;;;;;;;;;;28.48;47.61;98729.69;5093089;28;19912;-46
2023/07/19 03:18:17;;;;;;;;;;;;;;;28.54;47.97;98738.47;5093024;28;19912;-46
2023/07/19 03:20:43;;;;;;;;;;;;;;;28.52;47.37;98740.69;5093021;28;19916;-46
2023/07/19 03:23:08;;;;;;;;;;;;;;;28.39;47.58;98739.72;5091652;28;20014;-46
2023/07/19 03:25:34;;;;;;;;;;;;;;;28.30;47.65;98738.91;5091748;28;20373;-46
2023/07/19 03:27:59;;;;;;;;;;;;;;;28.24;47.28;98743.66;5092729;28;19947;-46
2023/07/19 03:30:25;;;;;;;;;;;;;;;28.16;47.57;98754.44;5093250;28;20057;-46
2023/07/19 03:32:51;;;;;;;;;;;;;;;28.02;47.62;98762.66;5092804;28;20032;-46
2023/07/19 03:35:16;;;;;;;;;;;;;;;28.01;47.74;98761.06;5092664;28;19912;-46
2023/07/19 03:37:44;;;;;;;;;;;;;;;28.05;47.37;98756.63;5092640;28;19923;-46
2023/07/19 03:40:10;;;;;;;;;;;;;;;28.09;47.64;98757.56;5092968;28;19934;-46
2023/07/19 03:42:36;;;;;;;;;;;;;;;28.01;47.34;98778.06;5091416;28;20331;-46
2023/07/19 03:45:01;;;;;;;;;;;;;;;27.94;47.83;98788.50;5092812;28;19961;-46
2023/07/19 03:47:27;;;;;;;;;;;;;;;27.89;47.48;98792.16;5092526;28;19912;-46
2023/07/19 03:49:52;;;;;;;;;;;;;;;27.85;47.81;98801.94;5091215;28;19912;-46
2023/07/19 03:52:18;;;;;;;;;;;;;;;27.87;47.69;98796.28;5092497;28;19943;-46
2023/07/19 03:54:43;;;;;;;;;;;;;;;27.91;47.70;98799.94;5092430;28;19912;-46
2023/07/19 03:57:09;;;;;;;;;;;;;;;27.97;47.74;98795.16;5092393;28;20297;-46
2023/07/19 03:59:34;;;;;;;;;;;;;;;28.00;47.84;98789.94;5091103;28;19916;-46
2023/07/19 04:02:00;;;;;;;;;;;;;;;28.02;47.96;98784.25;5092479;28;19911;-46
2023/07/19 04:04:25;;;;;;;;;;;;;;;27.88;47.61;98785.16;5091112;28;20390;-46
2023/07/19 04:06:50;;;;;;;;;;;;;;;27.80;47.81;98783.19;5091018;28;19916;-46
2023/07/19 04:09:17;;;;;;;;;;;;;;;27.78;48.21;98766.53;5090980;28;19912;-46
2023/07/19 04:11:42;;;;;;;;;;;;;;;27.68;48.10;98764.09;5092556;28;19912;-46
2023/07/19 04:14:08;;;;;;;;;;;;;;;27.56;48.27;98753.13;5092181;28;20297;-46
2023/07/19 04:16:34;;;;;;;;;;;;;;;27.46;48.73;98748.78;5092214;28;19955;-46
2023/07/19 04:18:59;;;;;;;;;;;;;;;27.33;48.33;98755.09;5092261;28;19919;-46
2023/07/19 04:21:24;;;;;;;;;;;;;;;27.23;48.89;98746.16;5092260;28;19912;-46
2023/07/19 04:23:50;;;;;;;;;;;;;;;27.12;48.50;98744.00;5090879;28;19915;-45
2023/07/19 04:26:15;;;;;;;;;;;;;;;26.99;48.47;98737.59;5092156;28;19958;-46
2023/07/19 04:28:41;;;;;;;;;;;;;;;26.89;48.24;98738.63;5092176;28;19912;-46
2023/07/19 04:31:06;;;;;;;;;;;;;;;26.79;48.22;98739.66;5090798;28;19911;-46
2023/07/19 04:33:32;;;;;;;;;;;;;;;26.71;48.59;98724.25;5090792;28;19912;-46
2023/07/19 04:35:57;;;;;;;;;;;;;;;26.64;48.30;98732.75;5092079;28;19916;-46
2023/07/19 04:38:23;;;;;;;;;;;;;;;26.58;48.68;98727.78;5092025;28;19916;-46
2023/07/19 04:40:48;;;;;;;;;;;;;;;26.61;48.23;98719.91;5096044;28;20010;-46
2023/07/19 04:43:14;;;;;;;;;;;;;;;26.67;47.79;98724.06;5094716;28;19965;-46
2023/07/19 04:45:41;;;;;;;;;;;;;;;26.67;47.49;98713.28;5095983;28;19916;-46
2023/07/19 04:48:06;;;;;;;;;;;;;;;26.71;47.80;98708.09;5094697;28;19911;-46
2023/07/19 04:50:32;;;;;;;;;;;;;;;26.77;47.42;98709.56;5095888;28;20400;-46
2023/07/19 04:52:57;;;;;;;;;;;;;;;26.94;46.83;98710.75;5095847;28;19916;-46
2023/07/19 04:55:23;;;;;;;;;;;;;;;27.28;46.49;98716.34;5095681;28;19919;-46
2023/07/19 04:57:49;;;;;;;;;;;;;;;27.80;45.51;98701.47;5095764;28;19911;-46
2023/07/19 05:00:14;;;;;;;;;;;;;;;28.25;45.22;98702.06;5095675;28;19916;-46
2023/07/19 05:02:40;;;;;;;;;;;;;;;28.64;44.25;98704.94;5095917;28;20275;-46
2023/07/19 05:05:06;;;;;;;;;;;;;;;29.00;43.65;98701.06;5095612;28;20297;-46
2023/07/19 05:07:34;;;;;;;;;;;;;;;29.34;43.26;98707.47;5095664;28;19912;-46
2023/07/19 05:10:00;;;;;;;;;;;;;;;29.75;42.48;98709.53;5095794;28;19912;-46
2023/07/19 05:12:25;;;;;;;;;;;;;;;30.32;41.84;98707.44;5094479;28;19919;-46
2023/07/19 05:14:51;;;;;;;;;;;;;;;30.99;40.89;98717.22;5094070;28;20301;-46
2023/07/19 05:17:16;;;;;;;;;;;;;;;31.68;39.79;98708.59;5095375;28;19912;-46
2023/07/19 05:19:42;;;;;;;;;;;;;;;32.29;38.62;98715.88;5095360;28;19916;-47
2023/07/19 05:22:07;;;;;;;;;;;;;;;32.73;37.88;98710.50;5095326;28;19919;-46
2023/07/19 05:24:33;;;;;;;;;;;;;;;32.96;36.69;98706.09;5093929;28;20014;-46
2023/07/19 05:26:58;;;;;;;;;;;;;;;33.23;36.65;98718.06;5093892;28;19924;-46
2023/07/19 05:29:23;;;;;;;;;;;;;;;33.57;36.10;98717.69;5095179;28;19923;-46
2023/07/19 05:31:49;;;;;;;;;;;;;;;33.98;34.87;98712.81;5095111;28;19912;-46
2023/07/19 05:34:14;;;;;;;;;;;;;;;34.25;33.98;98711.09;5095214;28;19938;-46
2023/07/19 05:36:40;;;;;;;;;;;;;;;34.34;33.38;98719.81;5093469;28;19916;-46
2023/07/19 05:39:05;;;;;;;;;;;;;;;34.19;33.44;98724.19;5094990;28;19919;-46
2023/07/19 05:41:30;;;;;;;;;;;;;;;33.98;33.33;98723.69;5093685;28;19916;-46
2023/07/19 05:43:57;;;;;;;;;;;;;;;34.16;33.58;98726.84;5095097;28;19920;-46
2023/07/19 05:46:23;;;;;;;;;;;;;;;34.51;33.00;98723.25;5093490;28;20263;-46
2023/07/19 05:48:49;;;;;;;;;;;;;;;34.77;32.54;98726.16;5094775;28;19957;-46
2023/07/19 05:51:14;;;;;;;;;;;;;;;34.93;31.97;98715.13;5094689;28;19916;-46
2023/07/19 05:53:40;;;;;;;;;;;;;;;35.11;31.69;98703.72;5094662;28;19942;-46
2023/07/19 05:56:05;;;;;;;;;;;;;;;35.41;31.24;98712.03;5093385;28;19961;-46
2023/07/19 05:58:31;;;;;;;;;;;;;;;35.70;30.64;98715.22;5094670;28;19948;-46
2023/07/19 06:00:57;;;;;;;;;;;;;;;35.98;30.85;98715.66;5094518;28;19919;-47
2023/07/19 06:03:23;;;;;;;;;;;;;;;36.21;30.21;98714.00;5094769;28;19929;-46
2023/07/19 06:05:48;;;;;;;;;;;;;;;35.96;30.45;98717.16;5093168;28;20015;-47
2023/07/19 06:08:14;;;;;;;;;;;;;;;36.38;30.49;98716.97;5093164;28;20007;-46
2023/07/19 06:10:39;;;;;;;;;;;;;;;36.96;29.57;98712.09;5093032;28;19919;-46
2023/07/19 06:13:05;;;;;;;;;;;;;;;37.67;28.40;98714.69;5094319;28;20300;-47
2023/07/19 06:15:31;;;;;;;;;;;;;;;38.13;27.87;98716.13;5094255;28;20348;-47
2023/07/19 06:17:57;;;;;;;;;;;;;;;38.38;27.49;98721.72;5094462;28;19919;-47
2023/07/19 06:20:22;;;;;;;;;;;;;;;38.69;27.03;98719.47;5094173;28;20297;-47
2023/07/19 06:22:48;;;;;;;;;;;;;;;38.89;26.92;98719.91;5094185;28;19912;-46
2023/07/19 06:25:14;;;;;;;;;;;;;;;39.35;26.89;98716.41;5094096;28;19957;-47
2023/07/19 06:27:40;;;;;;;;;;;;;;;39.62;26.49;98716.78;5094044;28;19965;-47
2023/07/19 06:30:06;;;;;;;;;;;;;;;39.82;25.60;98710.88;5092698;28;20672;-47
2023/07/19 06:32:31;;;;;;;;;;;;;;;39.95;25.26;98717.53;5092631;28;19912;-47
2023/07/19 06:34:57;;;;;;;;;;;;;;;40.00;25.15;98708.09;5092553;28;19919;-47
2023/07/19 06:37:22;;;;;;;;;;;;;;;40.27;24.93;98717.41;5093505;28;19916;-46
2023/07/19 06:39:48;;;;;;;;;;;;;;;40.37;24.57;98712.28;5093834;28;19920;-47
2023/07/19 06:42:13;;;;;;;;;;;;;;;40.46;24.12;98720.91;5093784;28;20010;-47
2023/07/19 06:44:39;;;;;;;;;;;;;;;40.61;23.87;98718.84;5075448;28;19981;-47
2023/07/19 06:47:04;;;;;;;;;;;;;;;40.96;23.39;98720.59;5093606;28;20385;-47
2023/07/19 06:49:30;;;;;;;;;;;;;;;41.40;22.52;98716.34;5092328;28;19955;-47
2023/07/19 06:51:55;;;;;;;;;;;;;;;41.55;22.00;98722.47;5075307;28;20440;-47
2023/07/19 06:54:21;;;;;;;;;;;;;;;41.69;21.71;98721.59;5093512;28;19919;-47
2023/07/19 06:56:46;;;;;;;;;;;;;;;41.51;21.16;98719.78;5093444;28;19912;-46
2023/07/19 06:59:13;;;;;;;;;;;;;;;41.29;21.14;98726.66;5092155;28;19954;-46
2023/07/19 07:01:39;;;;;;;;;;;;;;;41.09;21.54;98721.69;5093183;28;20006;-46
2023/07/19 07:04:08;;;;;;;;;;;;;;;41.37;21.21;98733.66;5092079;28;20479;-47
2023/07/19 07:06:34;;;;;;;;;;;;;;;41.56;21.26;98726.03;5093338;28;19918;-47
2023/07/19 07:08:59;;;;;;;;;;;;;;;41.44;21.68;98730.09;5075011;28;20014;-47
2023/07/19 07:11:24;;;;;;;;;;;;;;;41.35;21.94;98740.78;5093210;28;19935;-47
2023/07/19 07:13:50;;;;;;;;;;;;;;;41.84;21.30;98736.78;5093101;28;19959;-47
2023/07/19 07:16:15;;;;;;;;;;;;;;;41.94;21.37;98731.56;5093123;28;19915;-47
2023/07/19 07:18:41;;;;;;;;;;;;;;;42.06;21.57;98723.56;5093090;28;19919;-47
2023/07/19 07:21:07;;;;;;;;;;;;;;;42.20;21.22;98728.13;5091721;28;19952;-47
2023/07/19 07:23:32;;;;;;;;;;;;;;;42.16;20.78;98716.38;5091726;28;20381;-47
2023/07/19 07:25:58;;;;;;;;;;;;;;;42.31;20.39;98723.25;5091639;28;19912;-47
2023/07/19 07:28:23;;;;;;;;;;;;;;;42.37;20.47;98723.56;5074721;28;19999;-47
2023/07/19 07:30:49;;;;;;;;;;;;;;;42.20;20.67;98724.56;5074638;28;20285;-47
2023/07/19 07:33:14;;;;;;;;;;;;;;;41.86;20.49;98720.63;5092762;28;20297;-47
2023/07/19 07:35:40;;;;;;;;;;;;;;;41.32;21.31;98714.84;5092741;28;20377;-47
2023/07/19 07:38:05;;;;;;;;;;;;;;;40.84;21.49;98712.84;5092446;28;19985;-47
2023/07/19 07:40:31;;;;;;;;;;;;;;;40.70;21.90;98716.44;5091693;28;19919;-47
2023/07/19 07:42:56;;;;;;;;;;;;;;;40.42;22.11;98718.16;5091368;28;20012;-47
2023/07/19 07:45:22;;;;;;;;;;;;;;;40.21;22.62;98719.03;5092593;28;19948;-47
2023/07/19 07:47:47;;;;;;;;;;;;;;;40.41;22.66;98715.78;5092827;28;19912;-47
2023/07/19 07:50:13;;;;;;;;;;;;;;;40.63;22.42;98709.00;5092532;28;20336;-47
2023/07/19 07:52:39;;;;;;;;;;;;;;;40.69;22.13;98710.16;5091226;28;20410;-47
2023/07/19 07:55:05;;;;;;;;;;;;;;;40.57;21.64;98721.63;5091118;28;20019;-47
2023/07/19 07:57:33;;;;;;;;;;;;;;;40.71;21.74;98720.75;5092520;28;19974;-47
2023/07/19 07:59:59;;;;;;;;;;;;;;;41.13;21.40;98716.13;5092729;28;20292;-47
2023/07/19 08:02:24;;;;;;;;;;;;;;;41.75;21.05;98703.41;5091209;28;19920;-46
2023/07/19 08:04:52;;;;;;;;;;;;;;;42.34;20.48;98720.84;5092429;28;20324;-47
2023/07/19 08:07:17;;;;;;;;;;;;;;;43.01;19.65;98723.91;5092353;28;19935;-48
2023/07/19 08:09:42;;;;;;;;;;;;;;;43.33;19.64;98722.59;5092563;28;20373;-47
2023/07/19 08:12:08;;;;;;;;;;;;;;;43.81;18.83;98699.22;5091011;28;20301;-47
2023/07/19 08:14:35;;;;;;;;;;;;;;;44.07;18.42;98708.59;5091384;28;19912;-48
2023/07/19 08:17:00;;;;;;;;;;;;;;;44.47;18.36;98714.09;5092236;28;19916;-47
2023/07/19 08:19:26;;;;;;;;;;;;;;;44.81;18.41;98710.94;5090938;28;19912;-47
2023/07/19 08:21:51;;;;;;;;;;;;;;;45.00;17.98;98703.03;5092209;28;19912;-47
2023/07/19 08:24:17;;;;;;;;;;;;;;;45.40;17.65;98702.81;5090911;28;20278;-47
2023/07/19 08:26:43;;;;;;;;;;;;;;;45.77;16.83;98706.97;5092160;28;19915;-47
2023/07/19 08:29:08;;;;;;;;;;;;;;;45.75;16.99;98703.09;5092126;28;20441;-47
2023/07/19 08:31:34;;;;;;;;;;;;;;;45.81;17.44;98707.66;5090819;28;19912;-47
2023/07/19 08:33:59;;;;;;;;;;;;;;;46.19;16.94;98706.97;5092057;28;19957;-47
2023/07/19 08:36:25;;;;;;;;;;;;;;;46.41;16.48;98712.69;5092042;28;19915;-47
2023/07/19 08:38:50;;;;;;;;;;;;;;;46.56;16.90;98704.69;5091858;28;20425;-48
2023/07/19 08:41:21;;;;;;;;;;;;;;;46.68;16.34;98710.69;5090757;28;19912;-47
2023/07/19 08:43:46;;;;;;;;;;;;;;;46.71;15.94;98704.22;5092080;28;19912;-47
2023/07/19 08:46:14;;;;;;;;;;;;;;;46.69;15.86;98701.13;5091895;28;20401;-47
2023/07/19 08:48:42;;;;;;;;;;;;;;;46.65;15.78;98695.72;5090658;28;20462;-47
2023/07/19 08:51:08;;;;;;;;;;;;;;;46.57;16.09;98697.94;5091955;28;19912;-47
2023/07/19 08:53:34;;;;;;;;;;;;;;;46.73;15.75;98697.03;5091881;28;19912;-48
2023/07/19 08:55:59;;;;;;;;;;;;;;;46.72;15.52;98697.47;5090557;28;19922;-47
2023/07/19 08:58:25;;;;;;;;;;;;;;;46.76;15.18;98693.34;5090566;28;19916;-47
2023/07/19 09:00:50;;;;;;;;;;;;;;;46.52;15.33;98692.91;5092139;28;19912;-47
2023/07/19 09:03:16;;;;;;;;;;;;;;;46.35;15.22;98692.25;5090538;28;19912;-47
2023/07/19 09:05:44;;;;;;;;;;;;;;;46.58;15.47;98698.69;5091784;28;20325;-47
2023/07/19 09:08:09;;;;;;;;;;;;;;;46.77;15.08;98691.38;5090518;28;20449;-47
2023/07/19 09:10:36;;;;;;;;;;;;;;;46.82;14.72;98697.13;5090410;28;19965;-47
2023/07/19 09:13:07;;;;;;;;;;;;;;;46.90;14.62;98688.59;5091822;28;19912;-47
2023/07/19 09:15:35;;;;;;;;;;;;;;;46.78;14.64;98676.22;5091611;28;19912;-48
2023/07/19 09:18:01;;;;;;;;;;;;;;;46.19;15.04;98672.91;5090406;28;19912;-47
2023/07/19 09:20:28;;;;;;;;;;;;;;;46.27;14.96;98671.47;5090365;28;19912;-48
2023/07/19 09:22:55;;;;;;;;;;;;;;;46.59;15.10;98666.94;5091880;28;19944;-47
2023/07/19 09:25:21;;;;;;;;;;;;;;;46.93;14.52;98665.44;5093253;28;19916;-47
2023/07/19 09:27:46;;;;;;;;;;;;;;;46.75;14.43;98666.03;5095265;28;19919;-47
2023/07/19 09:30:12;;;;;;;;;;;;;;;46.69;14.67;98662.25;5093881;28;19912;-47
2023/07/19 09:32:38;;;;;;;;;;;;;;;46.93;14.71;98677.34;5095104;28;19916;-47
2023/07/19 09:35:04;;;;;;;;;;;;;;;46.47;14.94;98673.25;5095011;28;19923;-47
2023/07/19 09:37:30;;;;;;;;;;;;;;;46.36;14.79;98670.78;5093464;28;19923;-48
2023/07/19 09:39:56;;;;;;;;;;;;;;;46.30;15.10;98667.03;5093690;28;20293;-47
2023/07/19 09:42:24;;;;;;;;;;;;;;;46.11;15.10;98661.25;5093686;28;19923;-48
2023/07/19 09:44:49;;;;;;;;;;;;;;;46.04;15.30;98667.00;5095116;28;19935;-47
2023/07/19 09:47:15;;;;;;;;;;;;;;;46.29;15.17;98668.25;5094832;28;20382;-48
2023/07/19 09:49:42;;;;;;;;;;;;;;;46.33;15.40;98658.59;5093799;28;19918;-48
2023/07/19 09:52:08;;;;;;;;;;;;;;;46.57;15.31;98661.06;5095025;28;19981;-48
2023/07/19 09:54:33;;;;;;;;;;;;;;;46.79;14.79;98661.13;5093294;28;20392;-47
2023/07/19 09:56:59;;;;;;;;;;;;;;;46.47;15.29;98662.16;5093367;28;19962;-47
2023/07/19 09:59:29;;;;;;;;;;;;;;;46.68;15.04;98667.03;5093334;28;19921;-47
2023/07/19 10:01:55;;;;;;;;;;;;;;;46.75;15.24;98666.03;5094601;28;20304;-47
2023/07/19 10:04:25;;;;;;;;;;;;;;;46.79;15.24;98659.16;5094569;28;19916;-47
2023/07/19 10:07:03;;;;;;;;;;;;;;;46.57;15.48;98659.06;5094726;28;19962;-48
2023/07/19 10:09:30;;;;;;;;;;;;;;;46.69;15.23;98665.03;5093127;28;20392;-47
2023/07/19 10:11:59;;;;;;;;;;;;;;;46.75;15.42;98671.59;5093079;28;20419;-48
2023/07/19 10:14:28;;;;;;;;;;;;;;;47.07;15.01;98658.63;5092982;28;20415;-48
2023/07/19 10:16:58;;;;;;;;;;;;;;;47.28;14.78;98651.59;5094326;28;20376;-48
2023/07/19 10:19:24;;;;;;;;;;;;;;;47.39;14.54;98657.53;5094316;28;20392;-48
2023/07/19 10:22:05;;;;;;;;;;;;;;;47.45;14.79;98652.94;5094209;28;19955;-48
2023/07/19 10:24:35;;;;;;;;;;;;;;;47.24;15.01;98651.72;5094185;28;19912;-48
2023/07/19 10:27:04;;;;;;;;;;;;;;;47.26;14.79;98648.50;5092779;28;19934;-47
2023/07/19 10:29:50;;;;;;;;;;;;;;;46.97;14.94;98649.44;5094042;28;19916;-47
2023/07/19 10:32:16;;;;;;;;;;;;;;;46.47;15.15;98648.28;5093517;28;19950;-47
2023/07/19 10:34:43;;;;;;;;;;;;;;;45.63;15.62;98651.91;5093828;28;19916;-48
2023/07/19 10:37:08;;;;;;;;;;;;;;;45.00;16.21;98648.41;5092811;28;20011;-48
2023/07/19 10:39:34;;;;;;;;;;;;;;;45.51;16.26;98647.88;5093861;28;20454;-47
2023/07/19 10:42:00;;;;;;;;;;;;;;;46.52;15.67;98647.72;5092462;28;19947;-47
2023/07/19 10:44:26;;;;;;;;;;;;;;;47.32;15.15;98655.03;5093772;28;19931;-48
2023/07/19 10:46:55;;;;;;;;;;;;;;;47.02;15.53;98665.53;5092503;28;19916;-48
2023/07/19 10:49:23;;;;;;;;;;;;;;;47.18;15.32;98664.63;5093739;28;19912;-47
2023/07/19 10:51:53;;;;;;;;;;;;;;;47.26;15.52;98649.25;5092623;28;19912;-47
2023/07/19 10:54:19;;;;;;;;;;;;;;;47.33;15.53;98651.78;5093542;28;19912;-48
2023/07/19 10:56:46;;;;;;;;;;;;;;;47.28;15.28;98660.69;5092180;28;19923;-48
2023/07/19 10:59:12;;;;;;;;;;;;;;;47.49;14.69;98661.16;5092116;28;19912;-48
2023/07/19 11:01:38;;;;;;;;;;;;;;;47.78;14.83;98639.44;5092139;28;19923;-48
2023/07/19 11:04:04;;;;;;;;;;;;;;;47.71;14.93;98636.91;5093404;28;19912;-47
2023/07/19 11:06:30;;;;;;;;;;;;;;;47.64;14.84;98639.97;5093267;28;19919;-48
2023/07/19 11:09:05;;;;;;;;;;;;;;;47.17;15.62;98636.06;5093337;28;19912;-48
2023/07/19 11:11:33;;;;;;;;;;;;;;;46.84;15.46;98641.13;5091953;28;19935;-48
2023/07/19 11:13:59;;;;;;;;;;;;;;;46.86;15.59;98630.34;5093160;28;19912;-48
2023/07/19 11:16:26;;;;;;;;;;;;;;;46.84;15.34;98635.59;5093125;28;20497;-48
2023/07/19 11:18:53;;;;;;;;;;;;;;;47.01;15.45;98625.09;5091879;28;19955;-48
2023/07/19 11:21:27;;;;;;;;;;;;;;;46.69;15.53;98624.16;5091730;28;20369;-47
2023/07/19 11:23:53;;;;;;;;;;;;;;;45.12;16.19;98619.22;5091672;28;19912;-47
2023/07/19 11:26:19;;;;;;;;;;;;;;;43.83;17.11;98628.50;5093002;28;19916;-47
2023/07/19 11:28:55;;;;;;;;;;;;;;;43.42;17.69;98617.84;5091612;28;20445;-47
2023/07/19 11:31:31;;;;;;;;;;;;;;;43.47;17.99;98618.13;5093131;28;19934;-47
2023/07/19 11:34:06;;;;;;;;;;;;;;;43.22;18.17;98606.72;5092863;28;19912;-47
2023/07/19 11:36:32;;;;;;;;;;;;;;;42.76;18.80;98602.78;5091284;28;20024;-47
2023/07/19 11:38:58;;;;;;;;;;;;;;;42.25;18.99;98606.28;5092834;28;19925;-47
2023/07/19 11:41:23;;;;;;;;;;;;;;;41.87;19.23;98616.63;5092987;28;20305;-48
2023/07/19 11:43:49;;;;;;;;;;;;;;;42.13;19.37;98612.38;5091425;28;20342;-47
2023/07/19 11:46:15;;;;;;;;;;;;;;;42.96;18.93;98614.69;5092606;28;19916;-47
2023/07/19 11:48:40;;;;;;;;;;;;;;;44.14;18.23;98614.41;5092482;28;19918;-47
2023/07/19 11:51:06;;;;;;;;;;;;;;;44.95;17.34;98610.13;5092584;28;19958;-47
2023/07/19 11:53:31;;;;;;;;;;;;;;;45.41;17.09;98613.69;5091181;28;19912;-47
2023/07/19 11:55:57;;;;;;;;;;;;;;;45.99;16.54;98606.50;5092550;28;19962;-47
2023/07/19 11:58:23;;;;;;;;;;;;;;;46.37;16.51;98608.53;5092474;28;19912;-47
2023/07/19 12:00:48;;;;;;;;;;;;;;;46.38;16.29;98607.28;5092414;28;19973;-48
2023/07/19 12:03:17;;;;;;;;;;;;;;;46.28;16.63;98600.84;5091168;28;19999;-47
2023/07/19 12:05:43;;;;;;;;;;;;;;;46.40;16.21;98600.06;5092360;28;19923;-48
2023/07/19 12:08:09;;;;;;;;;;;;;;;46.83;16.11;98592.38;5092344;28;20016;-48
2023/07/19 12:10:35;;;;;;;;;;;;;;;46.98;15.35;98601.75;5092336;28;19921;-48
2023/07/19 12:13:00;;;;;;;;;;;;;;;47.05;15.62;98597.97;5092246;28;19923;-48
2023/07/19 12:15:25;;;;;;;;;;;;;;;47.47;15.51;98592.09;5092259;28;19987;-47
2023/07/19 12:17:51;;;;;;;;;;;;;;;47.76;14.98;98589.06;5092290;28;19977;-48
2023/07/19 12:20:16;;;;;;;;;;;;;;;47.74;15.37;98583.16;5090959;28;19915;-48
2023/07/19 12:22:43;;;;;;;;;;;;;;;47.50;15.28;98579.31;5090970;28;20339;-48
2023/07/19 12:25:11;;;;;;;;;;;;;;;46.99;15.56;98586.66;5090942;28;19966;-48
2023/07/19 12:27:37;;;;;;;;;;;;;;;46.51;16.30;98583.09;5090864;28;20011;-48
2023/07/19 12:30:02;;;;;;;;;;;;;;;45.71;16.60;98586.72;5092231;28;20397;-47
2023/07/19 12:32:28;;;;;;;;;;;;;;;45.21;17.18;98582.53;5092449;28;19912;-48
2023/07/19 12:34:55;;;;;;;;;;;;;;;45.16;17.44;98585.84;5091996;28;20408;-48
2023/07/19 12:37:20;;;;;;;;;;;;;;;45.41;17.25;98591.50;5091817;28;19923;-48
2023/07/19 12:39:46;;;;;;;;;;;;;;;44.97;17.20;98593.84;5090771;28;19912;-47
2023/07/19 12:42:11;;;;;;;;;;;;;;;44.96;17.48;98594.31;5092315;28;20460;-47